createdAt,value
2018-03-15T00:02:26.164Z,57.00
2018-03-15T00:04:53.874Z,57.20
2018-03-15T00:07:22.215Z,57.30
2018-03-15T00:09:51.394Z,57.20
2018-03-15T00:12:19.015Z,57.30
2018-03-15T00:14:47.863Z,57.10
2018-03-15T00:17:16.255Z,57.10
2018-03-15T00:19:43.837Z,56.90
2018-03-15T00:22:12.159Z,56.50
2018-03-15T00:24:41.022Z,56.50
2018-03-15T00:27:09.488Z,56.90
2018-03-15T00:29:37.811Z,56.60
2018-03-15T00:32:06.498Z,56.60
2018-03-15T00:34:34.087Z,56.50
2018-03-15T00:37:01.663Z,56.50
2018-03-15T00:39:29.489Z,56.20
2018-03-15T00:41:57.052Z,56.20
2018-03-15T00:44:24.803Z,56.30
2018-03-15T00:46:52.849Z,56.40
2018-03-15T00:49:21.138Z,56.60
2018-03-15T00:51:48.687Z,56.60
2018-03-15T00:54:16.211Z,56.60
2018-03-15T00:56:43.770Z,56.80
2018-03-15T00:59:11.407Z,56.60
2018-03-15T01:01:38.978Z,56.60
2018-03-15T01:04:06.541Z,56.50
2018-03-15T01:06:34.181Z,56.60
2018-03-15T01:09:01.709Z,56.10
2018-03-15T01:11:29.241Z,56.30
2018-03-15T01:13:57.966Z,56.30
2018-03-15T01:16:25.569Z,55.80
2018-03-15T01:18:53.903Z,56.20
2018-03-15T01:21:21.479Z,56.20
2018-03-15T01:23:49.071Z,56.00
2018-03-15T01:26:16.705Z,56.10
2018-03-15T01:28:45.102Z,56.30
2018-03-15T01:31:12.631Z,56.20
2018-03-15T01:33:40.941Z,56.40
2018-03-15T01:36:08.468Z,56.60
2018-03-15T01:38:36.052Z,57.10
2018-03-15T01:41:03.669Z,56.20
2018-03-15T01:43:33.859Z,56.60
2018-03-15T01:46:02.933Z,56.60
2018-03-15T01:48:30.513Z,56.30
2018-03-15T01:50:58.892Z,56.50
2018-03-15T01:53:27.499Z,56.40
2018-03-15T01:55:56.575Z,56.50
2018-03-15T01:58:24.110Z,56.40
2018-03-15T02:00:51.722Z,56.50
2018-03-15T02:03:20.243Z,56.70
2018-03-15T02:05:47.820Z,56.30
2018-03-15T02:08:15.369Z,56.50
2018-03-15T02:10:43.598Z,56.60
2018-03-15T02:13:11.934Z,56.70
2018-03-15T02:15:39.582Z,56.70
2018-03-15T02:18:08.492Z,56.50
2018-03-15T02:20:36.132Z,56.70
2018-03-15T02:23:03.666Z,56.90
2018-03-15T02:25:32.067Z,57.00
2018-03-15T02:28:00.566Z,56.90
2018-03-15T02:30:28.927Z,57.10
2018-03-15T02:32:56.476Z,56.90
2018-03-15T02:35:24.973Z,57.00
2018-03-15T02:37:52.517Z,56.50
2018-03-15T02:40:20.035Z,56.60
2018-03-15T02:42:49.040Z,56.60
2018-03-15T02:45:16.609Z,56.60
2018-03-15T02:47:44.124Z,56.50
2018-03-15T02:50:12.489Z,56.60
2018-03-15T02:52:40.007Z,56.50
2018-03-15T02:55:08.812Z,56.40
2018-03-15T02:57:36.657Z,56.40
2018-03-15T03:00:07.140Z,56.50
2018-03-15T03:02:34.684Z,56.40
2018-03-15T03:05:02.356Z,56.50
2018-03-15T03:07:30.726Z,56.60
2018-03-15T03:09:59.159Z,56.90
2018-03-15T03:12:26.698Z,56.30
2018-03-15T03:14:54.281Z,56.20
2018-03-15T03:17:22.600Z,56.10
2018-03-15T03:19:50.185Z,56.10
2018-03-15T03:22:18.375Z,56.20
2018-03-15T03:24:45.908Z,56.20
2018-03-15T03:27:13.434Z,56.40
2018-03-15T03:29:40.984Z,56.30
2018-03-15T03:32:08.521Z,56.30
2018-03-15T03:34:36.847Z,56.20
2018-03-15T03:37:04.407Z,56.10
2018-03-15T03:39:31.952Z,56.20
2018-03-15T03:41:59.499Z,56.40
2018-03-15T03:44:27.696Z,56.40
2018-03-15T03:46:55.269Z,56.50
2018-03-15T03:49:23.429Z,56.60
2018-03-15T03:51:51.024Z,56.20
2018-03-15T03:54:18.550Z,56.40
2018-03-15T03:56:46.113Z,57.00
2018-03-15T03:59:13.682Z,56.90
2018-03-15T04:01:41.221Z,56.50
2018-03-15T04:04:08.843Z,56.80
2018-03-15T04:06:36.567Z,57.10
2018-03-15T04:09:05.180Z,56.90
2018-03-15T04:11:33.479Z,56.70
2018-03-15T04:14:01.035Z,56.80
2018-03-15T04:16:30.264Z,57.20
2018-03-15T04:18:58.273Z,57.50
2018-03-15T04:21:25.844Z,57.40
2018-03-15T04:23:54.122Z,57.40
2018-03-15T04:26:21.660Z,57.50
2018-03-15T04:28:49.202Z,57.70
2018-03-15T04:31:16.764Z,57.80
2018-03-15T04:33:44.307Z,57.80
2018-03-15T04:36:11.880Z,57.50
2018-03-15T04:38:39.414Z,57.30
2018-03-15T04:41:06.999Z,57.50
2018-03-15T04:43:35.432Z,57.50
2018-03-15T04:46:03.008Z,57.60
2018-03-15T04:48:31.454Z,57.70
2018-03-15T04:51:00.368Z,57.80
2018-03-15T04:53:28.966Z,58.50
2018-03-15T04:55:57.405Z,58.00
2018-03-15T04:58:25.142Z,57.90
2018-03-15T05:00:52.666Z,58.00
2018-03-15T05:03:20.972Z,58.00
2018-03-15T05:05:48.630Z,58.00
2018-03-15T05:08:16.175Z,57.90
2018-03-15T05:10:43.780Z,57.70
2018-03-15T05:13:11.337Z,57.90
2018-03-15T05:15:38.886Z,58.30
2018-03-15T05:18:07.076Z,58.60
2018-03-15T05:20:34.699Z,59.00
2018-03-15T05:23:02.250Z,58.90
2018-03-15T05:25:31.181Z,58.80
2018-03-15T05:27:58.742Z,58.70
2018-03-15T05:30:26.292Z,58.80
2018-03-15T05:32:54.626Z,59.00
2018-03-15T05:35:22.308Z,59.20
2018-03-15T05:37:49.832Z,59.00
2018-03-15T05:40:18.861Z,59.30
2018-03-15T05:42:46.803Z,59.30
2018-03-15T05:45:14.525Z,59.30
2018-03-15T05:47:42.052Z,59.20
2018-03-15T05:50:11.147Z,59.20
2018-03-15T05:52:38.684Z,59.20
2018-03-15T05:55:08.849Z,59.20
2018-03-15T05:57:37.086Z,59.10
2018-03-15T06:00:06.962Z,59.40
2018-03-15T06:02:34.482Z,59.40
2018-03-15T06:05:02.065Z,59.40
2018-03-15T06:07:29.649Z,59.40
2018-03-15T06:09:58.491Z,59.40
2018-03-15T06:12:26.695Z,59.00
2018-03-15T06:14:54.219Z,59.50
2018-03-15T06:17:22.572Z,59.60
2018-03-15T06:19:50.123Z,59.50
2018-03-15T06:22:18.304Z,59.60
2018-03-15T06:24:49.136Z,59.70
2018-03-15T06:27:16.711Z,59.70
2018-03-15T06:29:44.275Z,60.00
2018-03-15T06:32:12.615Z,59.80
2018-03-15T06:34:40.233Z,59.80
2018-03-15T06:37:08.493Z,60.00
2018-03-15T06:39:36.791Z,60.20
2018-03-15T06:42:04.386Z,60.10
2018-03-15T06:44:32.592Z,60.10
2018-03-15T06:47:00.343Z,59.80
2018-03-15T06:49:27.932Z,59.60
2018-03-15T06:51:55.543Z,59.90
2018-03-15T06:54:23.097Z,59.90
2018-03-15T06:56:50.676Z,59.90
2018-03-15T06:59:18.462Z,59.50
2018-03-15T07:01:46.067Z,59.50
2018-03-15T07:04:13.632Z,59.50
2018-03-15T07:06:42.930Z,59.20
2018-03-15T07:09:10.492Z,59.10
2018-03-15T07:11:38.827Z,59.20
2018-03-15T07:14:07.574Z,59.30
2018-03-15T07:16:35.101Z,59.30
2018-03-15T07:19:03.680Z,59.30
2018-03-15T07:21:33.160Z,59.20
2018-03-15T07:24:00.712Z,59.20
2018-03-15T07:26:29.096Z,59.30
2018-03-15T07:28:58.036Z,59.20
2018-03-15T07:31:25.725Z,59.20
2018-03-15T07:33:53.274Z,59.20
2018-03-15T07:36:20.868Z,59.10
2018-03-15T07:38:49.233Z,59.10
2018-03-15T07:41:18.066Z,58.90
2018-03-15T07:43:47.120Z,58.90
2018-03-15T07:46:14.685Z,58.90
2018-03-15T07:48:42.505Z,58.60
2018-03-15T07:51:10.969Z,58.60
2018-03-15T07:53:39.351Z,58.30
2018-03-15T07:56:06.908Z,58.20
2018-03-15T07:58:34.952Z,58.40
2018-03-15T08:01:03.418Z,58.50
2018-03-15T08:03:30.997Z,58.30
2018-03-15T08:06:00.046Z,58.10
2018-03-15T08:08:28.104Z,58.10
2018-03-15T08:10:55.698Z,58.50
2018-03-15T08:13:23.779Z,58.00
2018-03-15T08:15:51.342Z,57.90
2018-03-15T08:18:19.732Z,57.90
2018-03-15T08:20:48.794Z,57.40
2018-03-15T08:23:16.373Z,57.50
2018-03-15T08:25:43.890Z,57.60
2018-03-15T08:28:11.439Z,57.70
2018-03-15T08:30:39.023Z,57.80
2018-03-15T08:33:06.624Z,57.70
2018-03-15T08:35:34.946Z,57.70
2018-03-15T08:38:02.575Z,57.70
2018-03-15T08:40:30.931Z,56.70
2018-03-15T08:42:59.379Z,56.60
2018-03-15T08:45:26.977Z,56.50
2018-03-15T08:47:55.314Z,56.50
2018-03-15T08:50:22.922Z,56.50
2018-03-15T08:52:50.460Z,56.10
2018-03-15T08:55:19.112Z,56.00
2018-03-15T08:57:46.753Z,56.10
2018-03-15T09:00:14.396Z,56.00
2018-03-15T09:02:42.282Z,56.10
2018-03-15T09:05:10.452Z,56.00
2018-03-15T09:07:38.929Z,55.70
2018-03-15T09:10:09.599Z,55.40
2018-03-15T09:12:37.203Z,55.40
2018-03-15T09:15:06.692Z,55.30
2018-03-15T09:17:34.241Z,55.10
2018-03-15T09:20:01.797Z,55.10
2018-03-15T09:22:29.449Z,54.90
2018-03-15T09:24:57.576Z,54.50
2018-03-15T09:27:25.874Z,54.40
2018-03-15T09:29:53.468Z,54.40
2018-03-15T09:32:22.333Z,54.40
2018-03-15T09:34:49.941Z,54.40
2018-03-15T09:37:18.176Z,54.40
2018-03-15T09:39:46.359Z,54.20
2018-03-15T09:42:13.932Z,54.10
2018-03-15T09:44:41.533Z,54.30
2018-03-15T09:47:09.410Z,54.40
2018-03-15T09:49:37.056Z,54.30
2018-03-15T09:52:05.392Z,54.30
2018-03-15T09:54:32.969Z,54.40
2018-03-15T09:57:00.540Z,54.40
2018-03-15T09:59:28.911Z,54.60
2018-03-15T10:01:56.745Z,54.50
2018-03-15T10:04:24.324Z,54.30
2018-03-15T10:06:52.421Z,54.30
2018-03-15T10:09:20.126Z,54.50
2018-03-15T10:11:48.362Z,54.40
2018-03-15T10:14:17.020Z,54.50
2018-03-15T10:16:44.654Z,54.50
2018-03-15T10:19:12.570Z,54.60
2018-03-15T10:21:40.493Z,55.40
2018-03-15T10:24:08.830Z,54.50
2018-03-15T10:26:38.140Z,54.60
2018-03-15T10:29:05.800Z,54.80
2018-03-15T10:31:33.411Z,54.80
2018-03-15T10:34:01.036Z,54.80
2018-03-15T10:36:28.650Z,54.70
2018-03-15T10:38:56.251Z,54.90
2018-03-15T10:41:23.854Z,54.70
2018-03-15T10:43:51.434Z,54.50
2018-03-15T10:46:19.058Z,54.70
2018-03-15T10:48:47.562Z,54.70
2018-03-15T10:51:17.289Z,54.60
2018-03-15T10:53:44.853Z,54.60
2018-03-15T10:56:13.244Z,55.00
2018-03-15T10:58:41.005Z,54.60
2018-03-15T11:01:08.927Z,54.80
2018-03-15T11:03:42.283Z,54.80
2018-03-15T11:06:10.767Z,54.90
2018-03-15T11:08:39.224Z,55.20
2018-03-15T11:11:08.222Z,54.90
2018-03-15T11:13:39.097Z,55.00
2018-03-15T11:16:07.910Z,55.00
2018-03-15T11:18:35.563Z,54.90
2018-03-15T11:21:03.198Z,54.90
2018-03-15T11:23:31.863Z,54.90
2018-03-15T11:26:00.268Z,54.80
2018-03-15T11:28:28.268Z,54.80
2018-03-15T11:30:56.131Z,54.90
2018-03-15T11:33:23.765Z,55.10
2018-03-15T11:35:51.348Z,54.90
2018-03-15T11:38:18.977Z,54.60
2018-03-15T11:40:46.699Z,54.70
2018-03-15T11:43:15.064Z,54.80
2018-03-15T11:45:42.731Z,54.80
2018-03-15T11:48:10.446Z,55.20
2018-03-15T11:50:39.119Z,55.20
2018-03-15T11:53:07.413Z,55.00
2018-03-15T11:55:35.075Z,55.30
2018-03-15T11:58:03.663Z,55.10
2018-03-15T12:00:32.452Z,55.20
2018-03-15T12:03:01.844Z,55.30
2018-03-15T12:05:30.237Z,55.30
2018-03-15T12:07:58.439Z,55.30
2018-03-15T12:10:26.002Z,55.20
2018-03-15T12:12:53.588Z,55.30
2018-03-15T12:15:21.226Z,55.40
2018-03-15T12:17:49.123Z,55.40
2018-03-15T12:20:17.816Z,55.60
2018-03-15T12:22:45.416Z,55.60
2018-03-15T12:25:13.061Z,55.80
2018-03-15T12:27:42.028Z,56.20
2018-03-15T12:30:11.013Z,56.20
2018-03-15T12:32:40.509Z,56.30
2018-03-15T12:35:09.686Z,56.40
2018-03-15T12:37:38.189Z,56.50
2018-03-15T12:40:08.137Z,56.60
2018-03-15T12:42:35.917Z,56.60
2018-03-15T12:45:09.276Z,56.70
2018-03-15T12:47:37.614Z,56.70
2018-03-15T12:50:05.431Z,56.50
2018-03-15T12:52:34.042Z,56.60
2018-03-15T12:55:06.158Z,56.70
2018-03-15T12:57:35.419Z,56.70
2018-03-15T13:00:03.165Z,56.80
2018-03-15T13:02:30.769Z,56.90
2018-03-15T13:04:59.184Z,56.80
2018-03-15T13:07:26.761Z,56.80
2018-03-15T13:09:54.378Z,56.90
2018-03-15T13:12:22.041Z,57.10
2018-03-15T13:14:49.664Z,57.10
2018-03-15T13:17:18.287Z,57.00
2018-03-15T13:19:45.851Z,57.00
2018-03-15T13:22:13.738Z,56.80
2018-03-15T13:24:41.845Z,57.30
2018-03-15T13:27:10.769Z,57.50
2018-03-15T13:29:38.675Z,57.50
2018-03-15T13:32:07.791Z,57.60
2018-03-15T13:34:35.637Z,57.60
2018-03-15T13:37:03.434Z,57.50
2018-03-15T13:39:31.786Z,57.50
2018-03-15T13:41:59.364Z,57.50
2018-03-15T13:44:28.197Z,57.40
2018-03-15T13:46:56.702Z,58.00
2018-03-15T13:49:24.458Z,57.40
2018-03-15T13:51:53.942Z,57.40
2018-03-15T13:54:21.502Z,57.30
2018-03-15T13:56:49.115Z,57.70
2018-03-15T13:59:17.061Z,57.60
2018-03-15T14:01:45.234Z,57.50
2018-03-15T14:04:13.066Z,57.20
2018-03-15T14:06:41.142Z,57.50
2018-03-15T14:09:09.347Z,57.50
2018-03-15T14:11:37.208Z,57.60
2018-03-15T14:14:04.794Z,57.50
2018-03-15T14:16:32.371Z,57.40
2018-03-15T14:19:00.721Z,57.40
2018-03-15T14:21:29.159Z,57.40
2018-03-15T14:23:56.940Z,57.70
2018-03-15T14:26:24.518Z,57.60
2018-03-15T14:28:52.156Z,57.50
2018-03-15T14:31:19.702Z,58.20
2018-03-15T14:33:47.255Z,57.50
2018-03-15T14:36:15.428Z,57.60
2018-03-15T14:38:43.201Z,57.50
2018-03-15T14:41:11.536Z,57.30
2018-03-15T14:43:39.821Z,57.50
2018-03-15T14:46:08.341Z,57.50
2018-03-15T14:48:36.277Z,58.00
2018-03-15T14:51:04.753Z,58.30
2018-03-15T14:53:32.321Z,58.20
2018-03-15T14:56:00.824Z,58.00
2018-03-15T14:58:28.988Z,58.00
2018-03-15T15:00:58.964Z,58.00
2018-03-15T15:03:26.829Z,57.90
2018-03-15T15:05:56.513Z,58.10
2018-03-15T15:08:26.251Z,58.20
2018-03-15T15:10:53.925Z,58.20
2018-03-15T15:13:23.035Z,58.10
2018-03-15T15:15:56.601Z,58.80
2018-03-15T15:18:25.551Z,58.20
2018-03-15T15:20:53.984Z,58.30
2018-03-15T15:23:21.566Z,58.40
2018-03-15T15:25:49.785Z,58.50
2018-03-15T15:28:18.301Z,58.60
2018-03-15T15:30:45.831Z,58.80
2018-03-15T15:33:13.470Z,59.30
2018-03-15T15:35:41.996Z,58.70
2018-03-15T15:38:10.115Z,58.80
2018-03-15T15:40:40.641Z,58.60
2018-03-15T15:43:10.684Z,58.60
2018-03-15T15:45:41.169Z,58.60
2018-03-15T15:48:10.448Z,58.70
2018-03-15T15:50:39.976Z,58.80
2018-03-15T15:53:08.220Z,58.80
2018-03-15T15:55:37.094Z,58.80
2018-03-15T15:58:05.552Z,58.90
2018-03-15T16:00:35.396Z,58.90
2018-03-15T16:03:03.012Z,58.80
2018-03-15T16:05:31.421Z,59.00
2018-03-15T16:07:58.987Z,59.20
2018-03-15T16:10:27.088Z,59.20
2018-03-15T16:12:55.718Z,59.20
2018-03-15T16:15:24.642Z,59.30
2018-03-15T16:17:52.967Z,59.40
2018-03-15T16:20:25.516Z,59.60
2018-03-15T16:22:54.159Z,59.50
2018-03-15T16:25:22.279Z,59.70
2018-03-15T16:27:50.781Z,60.00
2018-03-15T16:30:20.260Z,59.90
2018-03-15T16:32:48.382Z,59.80
2018-03-15T16:35:17.768Z,60.00
2018-03-15T16:37:47.125Z,59.90
2018-03-15T16:40:15.320Z,60.10
2018-03-15T16:42:42.945Z,60.60
2018-03-15T16:45:11.249Z,60.90
2018-03-15T16:47:40.315Z,61.00
2018-03-15T16:50:10.160Z,61.10
2018-03-15T16:52:38.661Z,61.10
2018-03-15T16:55:08.090Z,61.10
2018-03-15T16:57:37.425Z,60.80
2018-03-15T17:00:07.195Z,60.90
2018-03-15T17:02:36.543Z,61.10
2018-03-15T17:05:04.926Z,61.00
2018-03-15T17:07:33.296Z,61.00
2018-03-15T17:10:04.161Z,61.00
2018-03-15T17:12:31.743Z,61.10
2018-03-15T17:15:01.007Z,61.20
2018-03-15T17:17:31.017Z,61.20
2018-03-15T17:19:59.360Z,61.30
2018-03-15T17:22:27.276Z,61.40
2018-03-15T17:24:56.276Z,61.70
2018-03-15T17:27:24.668Z,61.60
2018-03-15T17:29:54.127Z,61.60
2018-03-15T17:32:25.349Z,61.60
2018-03-15T17:34:55.304Z,61.70
2018-03-15T17:37:22.962Z,61.60
2018-03-15T17:39:51.285Z,61.60
2018-03-15T17:42:20.057Z,61.50
2018-03-15T17:44:48.742Z,61.60
2018-03-15T17:47:16.273Z,61.80
2018-03-15T17:49:46.069Z,61.90
2018-03-15T17:52:14.041Z,61.90
2018-03-15T17:54:41.568Z,61.80
2018-03-15T17:57:11.310Z,61.70
2018-03-15T17:59:39.757Z,61.60
2018-03-15T18:02:09.084Z,61.10
2018-03-15T18:04:37.481Z,61.80
2018-03-15T18:07:05.143Z,61.70
2018-03-15T18:09:32.676Z,61.70
2018-03-15T18:12:01.188Z,61.60
2018-03-15T18:14:30.902Z,61.70
2018-03-15T18:17:02.180Z,61.50
2018-03-15T18:19:29.782Z,61.60
2018-03-15T18:21:58.003Z,61.80
2018-03-15T18:24:27.295Z,61.70
2018-03-15T18:26:55.651Z,61.60
2018-03-15T18:29:23.300Z,61.60
2018-03-15T18:31:50.935Z,61.60
2018-03-15T18:34:22.479Z,61.50
2018-03-15T18:36:50.100Z,61.50
2018-03-15T18:39:18.183Z,61.50
2018-03-15T18:41:47.890Z,61.50
2018-03-15T18:44:15.529Z,61.70
2018-03-15T18:46:44.359Z,61.60
2018-03-15T18:49:12.077Z,61.80
2018-03-15T18:51:40.722Z,61.90
2018-03-15T19:07:05.842Z,62.10
2018-03-15T19:09:33.582Z,63.40
2018-03-15T19:12:01.765Z,63.60
2018-03-15T19:14:29.759Z,63.70
2018-03-15T19:16:58.028Z,63.60
2018-03-15T19:19:28.897Z,63.50
2018-03-15T19:21:57.228Z,63.50
2018-03-15T19:24:27.325Z,63.30
2018-03-15T19:26:54.948Z,63.10
2018-03-15T19:29:22.565Z,63.10
2018-03-15T19:31:51.015Z,63.10
2018-03-15T19:34:19.465Z,62.90
2018-03-15T19:36:47.004Z,62.90
2018-03-15T19:39:15.284Z,62.90
2018-03-15T19:41:42.858Z,62.90
2018-03-15T19:44:10.417Z,62.80
2018-03-15T19:46:38.492Z,62.70
2018-03-15T19:49:06.144Z,63.40
2018-03-15T19:51:34.530Z,62.70
2018-03-15T19:54:03.273Z,62.60
2018-03-15T19:56:31.056Z,62.70
2018-03-15T19:58:59.474Z,62.60
2018-03-15T20:01:27.633Z,62.60
2018-03-15T20:03:55.200Z,62.70
2018-03-15T20:06:22.806Z,62.70
2018-03-15T20:08:50.531Z,62.80
2018-03-15T20:11:19.238Z,62.90
2018-03-15T20:13:46.797Z,62.90
2018-03-15T20:16:15.800Z,63.00
2018-03-15T20:18:44.488Z,63.30
2018-03-15T20:21:12.051Z,63.30
2018-03-15T20:23:45.897Z,63.40
2018-03-15T20:26:13.517Z,63.50
2018-03-15T20:28:44.968Z,63.50
2018-03-15T20:31:12.981Z,63.60
2018-03-15T20:33:47.991Z,63.70
2018-03-15T20:36:16.037Z,63.60
2018-03-15T20:38:43.956Z,63.80
2018-03-15T20:41:17.937Z,63.80
2018-03-15T20:43:47.825Z,63.90
2018-03-15T20:46:21.081Z,63.70
2018-03-15T20:48:55.096Z,63.80
2018-03-15T20:51:22.650Z,63.80
2018-03-15T20:53:50.246Z,63.80
2018-03-15T20:56:18.569Z,63.90
2018-03-15T20:58:47.028Z,63.90
2018-03-15T21:01:14.665Z,63.90
2018-03-15T21:03:42.808Z,63.80
2018-03-15T21:06:11.015Z,64.10
2018-03-15T21:08:38.677Z,64.20
2018-03-15T21:11:07.079Z,64.20
2018-03-15T21:13:35.163Z,64.20
2018-03-15T21:16:02.812Z,64.20
2018-03-15T21:18:30.402Z,64.20
2018-03-15T21:20:59.644Z,64.20
2018-03-15T21:23:27.935Z,64.20
2018-03-15T21:25:55.590Z,64.10
2018-03-15T21:28:23.228Z,64.20
2018-03-15T21:30:50.820Z,64.10
2018-03-15T21:33:19.446Z,64.10
2018-03-15T21:35:47.723Z,64.30
2018-03-15T21:38:16.331Z,64.20
2018-03-15T21:40:44.016Z,64.20
2018-03-15T21:43:11.880Z,64.10
2018-03-15T21:45:39.477Z,64.20
2018-03-15T21:48:07.972Z,64.20
2018-03-15T21:50:35.526Z,64.10
2018-03-15T21:53:03.939Z,64.20
2018-03-15T21:55:31.579Z,64.30
2018-03-15T21:57:59.124Z,64.30
2018-03-15T22:00:27.573Z,64.40
2018-03-15T22:02:55.442Z,64.30
2018-03-15T22:05:24.930Z,64.40
2018-03-15T22:07:52.597Z,64.30
2018-03-15T22:10:20.186Z,64.20
2018-03-15T22:12:48.493Z,64.20
2018-03-15T22:15:16.842Z,64.40
2018-03-15T22:17:44.472Z,64.40
2018-03-15T22:20:12.041Z,64.60
2018-03-15T22:22:39.998Z,64.50
2018-03-15T22:25:10.018Z,64.60
2018-03-15T22:27:37.591Z,64.80
2018-03-15T22:30:08.428Z,65.70
2018-03-15T22:32:36.127Z,65.30
2018-03-15T22:35:04.096Z,65.30
2018-03-15T22:37:31.669Z,65.10
2018-03-15T22:40:00.157Z,65.20
2018-03-15T22:42:28.574Z,65.00
2018-03-15T22:44:57.843Z,65.00
2018-03-15T22:47:26.240Z,65.00
2018-03-15T22:49:53.885Z,65.00
2018-03-15T22:52:21.543Z,65.10
2018-03-15T22:54:49.660Z,65.10
2018-03-15T22:57:17.710Z,65.10
2018-03-15T22:59:46.052Z,65.00
2018-03-15T23:02:14.853Z,65.20
2018-03-15T23:04:42.456Z,65.10
2018-03-15T23:07:10.999Z,65.20
2018-03-15T23:09:39.348Z,65.20
2018-03-15T23:12:06.871Z,65.20
2018-03-15T23:14:35.319Z,65.30
2018-03-15T23:17:02.886Z,65.20
2018-03-15T23:19:30.578Z,65.20
2018-03-15T23:21:58.541Z,65.30
2018-03-15T23:24:26.118Z,65.20
2018-03-15T23:26:53.735Z,65.20
2018-03-15T23:29:21.292Z,65.00
2018-03-15T23:31:51.072Z,65.10
2018-03-15T23:34:19.514Z,65.10
2018-03-15T23:36:47.053Z,65.10
2018-03-15T23:39:14.699Z,65.00
2018-03-15T23:41:42.226Z,64.80
2018-03-15T23:44:09.753Z,64.60
2018-03-15T23:46:38.076Z,64.60
2018-03-15T23:49:05.660Z,64.70
2018-03-15T23:51:33.705Z,64.70
2018-03-15T23:54:02.054Z,65.00
2018-03-15T23:56:30.732Z,65.00
2018-03-15T23:58:59.113Z,65.40
